createdAt,value
2023-04-16T00:00:04.437Z,4.33
2023-04-16T00:05:12.452Z,4.29
2023-04-16T00:10:14.278Z,4.24
2023-04-16T00:15:15.923Z,4.19
2023-04-16T00:20:17.745Z,4.08
2023-04-16T00:25:19.355Z,3.92
2023-04-16T00:30:20.970Z,3.79
2023-04-16T00:35:22.896Z,3.82
2023-04-16T00:40:29.010Z,3.85
2023-04-16T00:45:30.789Z,3.83
2023-04-16T00:50:33.610Z,3.76
2023-04-16T00:55:35.448Z,3.68
2023-04-16T01:00:37.059Z,3.64
2023-04-16T01:05:39.309Z,3.56
2023-04-16T01:10:41.336Z,3.54
2023-04-16T01:15:43.011Z,3.50
2023-04-16T01:20:45.540Z,3.53
2023-04-16T01:25:47.413Z,3.50
2023-04-16T01:30:49.116Z,3.48
2023-04-16T01:36:08.097Z,3.46
2023-04-16T01:41:09.889Z,3.42
2023-04-16T01:46:16.059Z,3.38
2023-04-16T01:51:17.729Z,3.38
2023-04-16T01:56:20.254Z,3.39
2023-04-16T02:01:22.135Z,3.38
2023-04-16T02:06:24.160Z,3.37
2023-04-16T02:11:26.554Z,3.33
2023-04-16T02:16:29.118Z,3.32
2023-04-16T02:21:41.706Z,3.13
2023-04-16T02:26:43.512Z,3.21
2023-04-16T02:31:50.149Z,3.23
2023-04-16T02:36:52.208Z,3.27
2023-04-16T02:41:54.297Z,3.27
2023-04-16T02:46:56.207Z,3.25
2023-04-16T02:51:58.061Z,3.15
2023-04-16T02:56:59.697Z,3.18
2023-04-16T03:02:01.570Z,3.19
2023-04-16T03:07:03.292Z,3.13
2023-04-16T03:12:05.291Z,3.13
2023-04-16T03:17:07.166Z,3.15
2023-04-16T03:22:08.859Z,3.20
2023-04-16T03:27:10.600Z,3.17
2023-04-16T03:32:12.824Z,3.12
2023-04-16T03:37:14.483Z,3.10
2023-04-16T03:42:16.383Z,3.17
2023-04-16T03:47:18.048Z,3.07
2023-04-16T03:52:21.554Z,3.14
2023-04-16T03:57:23.292Z,3.16
2023-04-16T04:02:26.079Z,3.17
2023-04-16T04:07:27.963Z,3.12
2023-04-16T04:12:29.719Z,3.10
2023-04-16T04:17:31.401Z,3.15
2023-04-16T04:22:33.343Z,3.08
2023-04-16T04:27:35.499Z,3.15
2023-04-16T04:32:37.527Z,3.27
2023-04-16T04:37:39.352Z,3.32
2023-04-16T04:42:50.630Z,3.35
2023-04-16T04:47:55.697Z,3.39
2023-04-16T04:52:57.991Z,3.46
2023-04-16T04:57:59.637Z,3.51
2023-04-16T05:03:11.324Z,3.61
2023-04-16T05:08:13.425Z,3.74
2023-04-16T05:13:15.045Z,3.87
2023-04-16T05:18:16.631Z,4.04
2023-04-16T05:23:18.293Z,4.22
2023-04-16T05:28:20.140Z,4.39
2023-04-16T05:33:21.827Z,4.50
2023-04-16T05:38:23.458Z,4.31
2023-04-16T05:43:25.091Z,4.34
2023-04-16T05:48:26.710Z,4.36
2023-04-16T05:53:28.337Z,4.40
2023-04-16T05:58:29.953Z,4.27
2023-04-16T06:03:31.878Z,4.58
2023-04-16T06:08:33.709Z,4.58
2023-04-16T06:13:35.322Z,5.09
2023-04-16T06:18:36.969Z,5.50
2023-04-16T06:23:38.602Z,5.87
2023-04-16T06:28:40.429Z,5.92
2023-04-16T06:33:42.253Z,6.19
2023-04-16T06:38:44.128Z,6.35
2023-04-16T06:43:45.933Z,6.35
2023-04-16T06:48:47.605Z,6.81
2023-04-16T06:53:49.590Z,7.04
2023-04-16T06:58:51.569Z,7.42
2023-04-16T07:03:53.455Z,7.75
2023-04-16T07:08:55.695Z,7.81
2023-04-16T07:13:58.934Z,8.25
2023-04-16T07:19:00.574Z,8.87
2023-04-16T07:24:02.924Z,8.86
2023-04-16T07:29:04.588Z,9.16
2023-04-16T07:34:06.508Z,9.46
2023-04-16T07:39:08.491Z,9.70
2023-04-16T07:44:10.644Z,9.97
2023-04-16T07:49:12.293Z,10.00
2023-04-16T07:54:13.941Z,10.35
2023-04-16T07:59:23.079Z,10.60
2023-04-16T08:04:26.534Z,10.38
2023-04-16T08:09:28.961Z,10.88
2023-04-16T08:14:31.250Z,11.11
2023-04-16T08:19:32.877Z,11.53
2023-04-16T08:24:34.488Z,11.72
2023-04-16T08:29:36.164Z,11.91
2023-04-16T08:34:38.136Z,12.05
2023-04-16T08:39:39.830Z,11.83
2023-04-16T08:44:48.843Z,12.14
2023-04-16T08:49:52.446Z,12.30
2023-04-16T08:55:05.349Z,12.43
2023-04-16T09:00:09.050Z,12.89
2023-04-16T09:05:11.398Z,13.11
2023-04-16T09:10:15.019Z,13.53
2023-04-16T09:15:16.637Z,13.29
2023-04-16T09:20:18.802Z,13.08
2023-04-16T09:25:22.584Z,13.07
2023-04-16T09:30:28.308Z,13.48
2023-04-16T09:35:45.349Z,13.53
2023-04-16T09:40:49.910Z,14.02
2023-04-16T09:45:53.369Z,14.34
2023-04-16T09:50:54.999Z,14.31
2023-04-16T09:55:58.078Z,14.47
2023-04-16T10:01:05.456Z,14.99
2023-04-16T10:06:15.120Z,14.21
2023-04-16T10:11:17.855Z,14.04
2023-04-16T10:16:19.525Z,14.61
2023-04-16T10:21:21.521Z,14.97
2023-04-16T10:26:25.396Z,15.35
2023-04-16T10:31:28.034Z,15.30
2023-04-16T10:36:29.924Z,15.13
2023-04-16T10:41:34.385Z,15.47
2023-04-16T10:46:41.501Z,15.12
2023-04-16T10:51:53.503Z,14.60
2023-04-16T10:57:04.396Z,15.50
2023-04-16T11:02:09.760Z,15.88
2023-04-16T11:07:11.625Z,16.26
2023-04-16T11:12:15.372Z,16.78
2023-04-16T11:17:17.486Z,16.54
2023-04-16T11:22:19.264Z,16.81
2023-04-16T11:27:21.073Z,17.41
2023-04-16T11:32:22.937Z,17.40
2023-04-16T11:37:35.465Z,16.85
2023-04-16T11:42:40.681Z,16.92
2023-04-16T11:47:55.513Z,16.72
2023-04-16T11:53:03.085Z,16.75
2023-04-16T11:58:17.924Z,16.78
2023-04-16T12:03:37.522Z,17.13
2023-04-16T12:08:39.359Z,16.46
2023-04-16T12:13:41.108Z,16.29
2023-04-16T12:19:00.404Z,16.46
2023-04-16T12:24:02.049Z,16.49
2023-04-16T12:29:16.485Z,16.35
2023-04-16T12:34:19.517Z,16.62
2023-04-16T12:39:22.578Z,16.46
2023-04-16T12:44:24.235Z,16.82
2023-04-16T12:49:26.101Z,16.99
2023-04-16T12:54:29.788Z,16.45
2023-04-16T12:59:31.382Z,15.88
2023-04-16T13:04:33.232Z,15.71
2023-04-16T13:09:35.615Z,15.89
2023-04-16T13:14:38.722Z,16.03
2023-04-16T13:19:40.364Z,16.15
2023-04-16T13:24:42.281Z,15.65
2023-04-16T13:29:44.602Z,15.10
2023-04-16T13:34:46.532Z,14.81
2023-04-16T13:39:48.122Z,15.16
2023-04-16T13:44:53.102Z,15.11
2023-04-16T13:49:54.954Z,14.69
2023-04-16T13:54:57.850Z,14.67
2023-04-16T14:00:01.558Z,14.74
2023-04-16T14:05:03.293Z,14.78
2023-04-16T14:10:05.287Z,14.81
2023-04-16T14:15:09.585Z,14.77
2023-04-16T14:20:13.111Z,14.51
2023-04-16T14:25:14.700Z,14.37
2023-04-16T14:30:16.734Z,14.36
2023-04-16T14:35:18.392Z,14.37
2023-04-16T14:40:20.070Z,14.35
2023-04-16T14:45:21.968Z,14.17
2023-04-16T14:50:23.666Z,14.20
2023-04-16T14:55:26.147Z,13.98
2023-04-16T15:00:28.113Z,13.90
2023-04-16T15:05:30.752Z,13.77
2023-04-16T15:10:32.890Z,13.66
2023-04-16T15:15:34.588Z,13.44
2023-04-16T15:20:36.272Z,13.32
2023-04-16T15:25:38.062Z,13.30
2023-04-16T15:30:40.823Z,13.12
2023-04-16T15:35:42.424Z,12.93
2023-04-16T15:40:44.180Z,13.05
2023-04-16T15:45:45.775Z,13.00
2023-04-16T15:50:48.167Z,12.96
2023-04-16T15:55:52.632Z,12.83
2023-04-16T16:00:54.316Z,12.84
2023-04-16T16:05:58.808Z,12.88
2023-04-16T16:11:01.462Z,12.89
2023-04-16T16:16:04.003Z,12.77
2023-04-16T16:21:06.208Z,12.83
2023-04-16T16:26:08.768Z,12.80
2023-04-16T16:31:12.181Z,12.77
2023-04-16T16:36:14.261Z,12.81
2023-04-16T16:41:15.881Z,12.79
2023-04-16T16:46:17.677Z,12.70
2023-04-16T16:51:20.591Z,12.60
2023-04-16T16:56:22.948Z,12.62
2023-04-16T17:01:28.282Z,12.59
2023-04-16T17:06:30.392Z,12.39
2023-04-16T17:11:32.219Z,12.34
2023-04-16T17:16:34.206Z,12.34
2023-04-16T17:21:36.152Z,12.27
2023-04-16T17:26:40.851Z,12.17
2023-04-16T17:31:42.566Z,12.11
2023-04-16T17:36:44.321Z,12.11
2023-04-16T17:41:46.072Z,12.04
2023-04-16T17:46:47.742Z,11.92
2023-04-16T17:51:49.414Z,11.87
2023-04-16T17:56:51.143Z,11.75
2023-04-16T18:01:53.042Z,11.67
2023-04-16T18:06:54.819Z,11.59
2023-04-16T18:11:57.096Z,11.40
2023-04-16T18:16:58.933Z,11.38
2023-04-16T18:22:00.669Z,11.36
2023-04-16T18:27:03.373Z,11.34
2023-04-16T18:32:05.429Z,11.26
2023-04-16T18:37:07.142Z,11.29
2023-04-16T18:42:09.110Z,11.24
2023-04-16T18:47:10.873Z,11.19
2023-04-16T18:52:12.815Z,11.16
2023-04-16T18:57:14.574Z,11.06
2023-04-16T19:02:16.235Z,10.94
2023-04-16T19:07:18.065Z,10.97
2023-04-16T19:12:19.889Z,11.01
2023-04-16T19:17:21.677Z,10.91
2023-04-16T19:22:23.341Z,10.90
2023-04-16T19:27:25.394Z,10.89
2023-04-16T19:32:26.990Z,10.85
2023-04-16T19:37:28.609Z,10.81
2023-04-16T19:42:30.190Z,10.68
2023-04-16T19:47:32.260Z,10.70
2023-04-16T19:52:38.704Z,10.65
2023-04-16T19:57:40.360Z,10.65
2023-04-16T20:02:42.086Z,10.65
2023-04-16T20:07:43.822Z,10.67
2023-04-16T20:12:45.497Z,10.67
2023-04-16T20:17:47.180Z,10.61
2023-04-16T20:22:49.067Z,10.55
2023-04-16T20:27:50.685Z,10.51
2023-04-16T20:32:52.327Z,10.46
2023-04-16T20:37:53.967Z,10.44
2023-04-16T20:42:59.874Z,10.38
2023-04-16T20:48:02.355Z,10.38
2023-04-16T20:53:04.381Z,10.30
2023-04-16T20:58:05.999Z,10.28
2023-04-16T21:03:07.857Z,10.32
2023-04-16T21:08:09.598Z,10.27
2023-04-16T21:13:11.451Z,10.28
2023-04-16T21:18:13.348Z,10.21
2023-04-16T21:23:14.967Z,10.20
2023-04-16T21:28:16.558Z,10.14
2023-04-16T21:33:18.339Z,10.12
2023-04-16T21:38:20.990Z,10.07
2023-04-16T21:43:23.484Z,10.02
2023-04-16T21:48:25.639Z,10.03
2023-04-16T21:53:31.921Z,10.00
2023-04-16T21:58:33.589Z,9.97
2023-04-16T22:03:40.066Z,9.92
2023-04-16T22:08:42.217Z,9.89
2023-04-16T22:13:46.346Z,9.82
2023-04-16T22:18:48.003Z,9.79
2023-04-16T22:23:49.620Z,9.75
2023-04-16T22:28:51.516Z,9.69
2023-04-16T22:33:53.258Z,9.65
2023-04-16T22:38:54.863Z,9.59
2023-04-16T22:43:56.564Z,9.50
2023-04-16T22:48:58.166Z,9.45
2023-04-16T22:53:59.728Z,9.40
2023-04-16T22:59:01.385Z,9.33
2023-04-16T23:04:03.021Z,9.26
2023-04-16T23:09:05.232Z,9.18
2023-04-16T23:14:07.656Z,9.12
2023-04-16T23:19:14.749Z,9.09
2023-04-16T23:24:17.187Z,9.05
2023-04-16T23:29:19.260Z,9.02
2023-04-16T23:34:20.951Z,8.96
2023-04-16T23:39:22.630Z,8.96
2023-04-16T23:44:24.383Z,8.89
2023-04-16T23:49:26.227Z,8.85
2023-04-16T23:54:27.939Z,8.83
2023-04-16T23:59:29.550Z,8.80
